Bienvenidos al Sitio de AASANA BOLIVIA
Aeropuerto: Internaciónal El Alto
HORA UTC 09:00
06°C
Humedad: 78%

Fecha: 19/11/2018


Sin Fenómeno
ESTACIÓN:SLLP
LATITUD|LONGITUD:16-08S|68-10W
HORA UTC:09:00
DESCRIPCIÓN: SLLP 190900Z VRB02KT 9999 FEW005 FEW017CB SCT070 BKN200 06/03 Q1036 A3061 627.2 HR78 CB/LT N/NE NOSIG=
Regional La Paz
EstaciónAerodromoSit. GeograficaDescripción
SLLPInternaciónal El Alto16-08S-68-10W SLLP 190900Z VRB02KT 9999 FEW005 FEW017CB SCT070 BKN200 06/03 Q1036 A3061 627.2 HR78 CB/LT N/NE NOSIG=
SLCNCharaña17-35S-69-25W
SLAPApolo14-44S-68-24W SLAP 312000Z 34015KSBAZ053‘4
SLUYUyuni20-27S-62-52W SLUY 190000Z 07015KT 9999 FEW020 15/03 Q1029 A3041 655.3 HR46 AC/CI=
SLOROruro17-57S-67-04W SLOR 181800Z 05015KT 9999 SCT023 FEW025CB 24/06 Q1030 A3042 652 .6 HR31 CB/SH SE/S AC/CI=
SLRYReyes14-18S-67-21W SLRY 182200Z 00000KT 9999 FEW017 SCT200 28/25 Q1006 A2973 HR82 RWY HUM OPR=
SLRQRurrenabaque14-25S-67-29W SLRQ 182200Z 00000KT 9999 FEW013 BKN200 28/25 Q1005 A2968 981.2 HR83=
SLSBSan Borja14-51S-66-44W SLSB 182300Z 30003KT 9999 NSC 28/23 Q1006 A2972 HR73 CI RWY NML =
SLCCCopacabana - Tito Yupanqui16-11S-69-05W SLCC 282100Z 00000KT 9999 FEW023 12/06 Q1034 A3056 644,0 HR72 AC CI=
Regional Cochabamba
EstaciónAerodromoSit. GeograficaDescripción
SLBJBermejo22-46S-64-18W SLBJ 072000Z 18004KT 9999 SCT025 FEW025TCU BKN200 31/26 Q1004 A2965 HR71 TCU/N/NE/NW=
SLYAYacuiba21-57S-63-39W SLYA 182300Z 18004KT 9999 BKN015 OVC070 16/15 Q1020 A3012 HR94=
SLHIChimore16-58S-65-09W SLHI 182300Z 14003KT 9999 TS SCT020 FEW023CB BKN200 25/24 Q1010 A2983 983.0 HR98 CB/TS E/S AC RERA=
SLAGMonteagudo19-49S-63-58W SLAG 162200Z VRB02KT 9999 BKN030 BKN070 26/20 Q1013 A2992 885.8 HR71=
SLVMVillamontes21-15S-63-24W SLVM 162000Z 00000KT 9999 SCT025 34/22 Q1006 A2972 HR49 CI=
SLTJTarija21-33S-64-42W SLTJ 190900Z 00000KT 9999 FEW002 BKN025 13/12 Q1023 A3022 817.6 HR94 ST BAJOS SW/W/NW CI=
SLPOPotosí19-32S-65-43W SLPO 181400Z 05012KT 9999 SCT020 16/05 Q1036 A3060 637.3 HR40 CI=
SLALAlcantari19-14S-65-09W SLAL 190200Z 07005KT 9999 FEW005 SCT070 BKN200 10/09 Q1031 A3045 705.4 HR92 ST BAJOS E/SE/S=
SLCBCochabamba17-25S-66-10W SLCB 190900Z 27004KT 8000 -RA FEW010 SCT025 OVC070 14/14 Q1025 A3029 751.9 HR99 NOSIG=
Regional Santa Cruz
EstaciónAerodromoSit. GeograficaDescripción
SLASAscención de Guarayos15-55S-63-09W SLAS 182300Z 00000KT 9999 OVC030 26/24 1011 A2986 HR92 RWY HUM OPR=
SLTISan Matías16-20S-58-24W SLTI 182200Z 00000KT 9999 FEW017 OVC200 24/24 Q1012 A2988 HR99 RWY WET OPR=
SLVGValle Grande18-28S-64-05W SLVG 181800Z 00000KT 9999 BKN020 OVC070 18/17 Q1023 A3021 HR95 RERA RWY HUM OPR=
SLPSPuerto Suárez18-58S-57-49W SLPS 182300Z 18012KT 8000 VCSH BKN015 FEW030CB OVC200 25/24 Q1008 A2977 HR91 CB/SH/NE/NW/S/SW=
SLVRInternaciónal Viru Viru17-38S-63-08W SLVR 190900Z 18015KT 9999 SCT006 BKN023 OVC070 18/17 Q1014 A2996 HR93 NOSIG=
SLJVSan Javier16-16S-62-28W SLJV 182200Z 36005KT 9999 SCT015 OVC200 26/23 Q1009 A2980 HR85 RWY NML=
SLCPConcepción16-08S-62-01W SLCP 182200Z 30005KT 9999 SCT023 OVC070 23/22 Q1013 A2991 HR92 RWY NML=
SLJESan José de Chiquitos17-49S-60-44W SLJE 181800Z 00000KT 9999 BKN017 BKN200 27/23 Q1012 A2988 HR77 RWY NML=
SLETEl Trompillo17-48S-63-10W SLET 190900Z 15010G23KT 9999 SCT007 BKN070 18/17 Q1014 A29.95 HR93 NOSIG=
SLSISan Ignacio de Velasco16-23S-60-57W SLSI 182300Z 00000KT 9999 SCT017 BKN070 25/23 Q1012 A2988 HR85 RWY NML=
SLRBRoboré18-19S-59-45W SLRB 182300Z 00000KT 9999 OVC015 25/24 Q1012 A2988 HR90 RWY NML =
SLCACamiri20-00S-63-31W SLCA 182300Z 00000KT 9999 OVC033 18/16 Q1020 A3012 HR90 RWY HUM OPR=
Regional Beni
EstaciónAerodromoSit. GeograficaDescripción
SLJOSan Joaquin13-03S-64-39W SLJO 182200Z 00000KT 8000 VCSH FEW017 FEW023CB SCT080 BKN200 28/25 Q1006 A2973 HR84 CB SE RWY NML=
SLRASan Ramón13-15S-64-36W SLRA 182200Z 00000KT 6000 TS VCSH FEW017 FEW020CB SCT070 BKN200 27/25 Q1006 A2973 HR86 CB/SH NE/E/SE TS E/SE RWY NML=
SLMGSan Magdalena13-15S-64-36W SLMG 182200Z 00000KT 8000 VCSH FEW017 FEW023CB OVC200 24/24 Q1007 A2976 HR98 CB/SH E RWY OPR C210=
SLBUBaures13-39S-63-42W SLBU 182200Z NIL=
SLSMSan Ignacio de Moxos14-57S-65-38W SLSM 182200Z 32006KT 9999 SCT017 FEW020CB 30/25 Q1006 A2972 HR75 CB N/NE RWY NML=
SLGMGuayaramerín10-53S-65-23W SLGM 182300Z 00000KT 9999 FEW017 BKN200 26/25 Q1007 A2976 HR96=
SLSASanta Ana de Yacuma13-45S-65-26W SLSA 182300Z 00000KT 9999 SCT017 FEW023CB BKN200 27/24 Q1006 A2972 HR82 CB/SH N=
SLTRTrinidad14-49S-64-54W SLTR 190900Z 14006KT 8000 -RA BKN005 FEW020CB OVC070 21/20 Q1012 A2989 993.8 HR96 CB NE/SE NOSIG=
SLRIRiberalta11-00S-66-04W SLRI 190900Z 00000KT 9999 BKN080 23/23 Q1010 A2983 HR97=
SLSRSanta Rosa14-04S-66-47W SLSR 182200Z 00000KT 9999 FEW017 FEW023CB BKN200 30/25 Q1006 A2971 HR74 CB N/SE RWY NML=
SLCOCobija11-02S-68-47W SLCO 182200Z 34008KT 9999 FEW023 SCT200 30/23 Q1007 A2974 979.9 HR66 AC=